sensor_id;sensor_type;location;lat;lon;timestamp;P1;durP1;ratioP1;P2;durP2;ratioP2
15126;SDS011;7664;52.008;4.748;2022-09-09T00:01:44;1.85;;;1.20;;
15126;SDS011;7664;52.008;4.748;2022-09-09T00:04:19;2.75;;;1.40;;
15126;SDS011;7664;52.008;4.748;2022-09-09T00:07:03;2.20;;;1.42;;
15126;SDS011;7664;52.008;4.748;2022-09-09T00:09:39;4.72;;;1.65;;
15126;SDS011;7664;52.008;4.748;2022-09-09T00:12:11;2.85;;;1.45;;
15126;SDS011;7664;52.008;4.748;2022-09-09T00:14:45;2.58;;;1.25;;
15126;SDS011;7664;52.008;4.748;2022-09-09T00:17:18;1.63;;;1.00;;
15126;SDS011;7664;52.008;4.748;2022-09-09T00:20:09;3.28;;;1.40;;
15126;SDS011;7664;52.008;4.748;2022-09-09T00:22:42;1.65;;;1.55;;
15126;SDS011;7664;52.008;4.748;2022-09-09T00:25:16;2.85;;;1.48;;
15126;SDS011;7664;52.008;4.748;2022-09-09T00:27:50;2.30;;;1.10;;
15126;SDS011;7664;52.008;4.748;2022-09-09T00:30:19;3.47;;;1.30;;
15126;SDS011;7664;52.008;4.748;2022-09-09T00:32:49;3.05;;;1.50;;
15126;SDS011;7664;52.008;4.748;2022-09-09T00:35:25;5.10;;;1.42;;
15126;SDS011;7664;52.008;4.748;2022-09-09T00:37:55;1.90;;;1.50;;
15126;SDS011;7664;52.008;4.748;2022-09-09T00:40:29;3.10;;;1.52;;
15126;SDS011;7664;52.008;4.748;2022-09-09T00:43:04;3.50;;;1.38;;
15126;SDS011;7664;52.008;4.748;2022-09-09T00:45:52;2.15;;;1.40;;
15126;SDS011;7664;52.008;4.748;2022-09-09T00:48:35;3.72;;;1.95;;
15126;SDS011;7664;52.008;4.748;2022-09-09T00:51:13;3.85;;;1.73;;
15126;SDS011;7664;52.008;4.748;2022-09-09T00:53:55;3.47;;;1.80;;
15126;SDS011;7664;52.008;4.748;2022-09-09T00:56:45;3.47;;;1.77;;
15126;SDS011;7664;52.008;4.748;2022-09-09T00:59:21;3.10;;;1.80;;
15126;SDS011;7664;52.008;4.748;2022-09-09T01:01:55;1.52;;;1.30;;
15126;SDS011;7664;52.008;4.748;2022-09-09T01:04:27;2.97;;;1.33;;
15126;SDS011;7664;52.008;4.748;2022-09-09T01:07:02;2.15;;;1.65;;
15126;SDS011;7664;52.008;4.748;2022-09-09T01:09:38;2.65;;;1.58;;
15126;SDS011;7664;52.008;4.748;2022-09-09T01:12:23;2.97;;;1.60;;
15126;SDS011;7664;52.008;4.748;2022-09-09T01:14:54;2.67;;;1.73;;
15126;SDS011;7664;52.008;4.748;2022-09-09T01:17:30;2.20;;;1.60;;
15126;SDS011;7664;52.008;4.748;2022-09-09T01:20:03;3.22;;;1.80;;
15126;SDS011;7664;52.008;4.748;2022-09-09T01:22:35;3.17;;;1.77;;
15126;SDS011;7664;52.008;4.748;2022-09-09T01:25:11;3.80;;;1.33;;
15126;SDS011;7664;52.008;4.748;2022-09-09T01:28:02;4.85;;;1.98;;
15126;SDS011;7664;52.008;4.748;2022-09-09T01:30:32;2.38;;;1.35;;
15126;SDS011;7664;52.008;4.748;2022-09-09T01:33:01;2.53;;;1.77;;
15126;SDS011;7664;52.008;4.748;2022-09-09T01:35:32;3.20;;;1.70;;
15126;SDS011;7664;52.008;4.748;2022-09-09T01:38:10;4.45;;;1.95;;
15126;SDS011;7664;52.008;4.748;2022-09-09T01:40:38;3.15;;;2.08;;
15126;SDS011;7664;52.008;4.748;2022-09-09T01:43:07;5.07;;;1.92;;
15126;SDS011;7664;52.008;4.748;2022-09-09T01:45:36;5.07;;;1.83;;
15126;SDS011;7664;52.008;4.748;2022-09-09T01:48:05;4.13;;;2.05;;
15126;SDS011;7664;52.008;4.748;2022-09-09T01:50:33;3.33;;;2.00;;
15126;SDS011;7664;52.008;4.748;2022-09-09T01:53:01;5.03;;;2.40;;
15126;SDS011;7664;52.008;4.748;2022-09-09T01:55:30;2.67;;;1.70;;
15126;SDS011;7664;52.008;4.748;2022-09-09T01:58:16;2.88;;;1.77;;
15126;SDS011;7664;52.008;4.748;2022-09-09T02:00:56;4.63;;;2.50;;
15126;SDS011;7664;52.008;4.748;2022-09-09T02:03:29;3.03;;;2.17;;
15126;SDS011;7664;52.008;4.748;2022-09-09T02:06:00;3.30;;;2.05;;
15126;SDS011;7664;52.008;4.748;2022-09-09T02:08:40;4.47;;;2.45;;
15126;SDS011;7664;52.008;4.748;2022-09-09T02:11:11;2.17;;;1.98;;
15126;SDS011;7664;52.008;4.748;2022-09-09T02:16:48;3.08;;;1.80;;
15126;SDS011;7664;52.008;4.748;2022-09-09T02:19:20;2.83;;;2.28;;
15126;SDS011;7664;52.008;4.748;2022-09-09T02:21:52;4.15;;;2.30;;
15126;SDS011;7664;52.008;4.748;2022-09-09T02:24:22;5.00;;;2.25;;
15126;SDS011;7664;52.008;4.748;2022-09-09T02:26:51;4.15;;;2.42;;
15126;SDS011;7664;52.008;4.748;2022-09-09T02:29:25;3.95;;;2.38;;
15126;SDS011;7664;52.008;4.748;2022-09-09T02:31:57;3.35;;;2.38;;
15126;SDS011;7664;52.008;4.748;2022-09-09T02:34:29;4.20;;;2.55;;
15126;SDS011;7664;52.008;4.748;2022-09-09T02:36:59;3.75;;;2.42;;
15126;SDS011;7664;52.008;4.748;2022-09-09T02:39:29;5.03;;;2.72;;
15126;SDS011;7664;52.008;4.748;2022-09-09T02:41:57;3.22;;;2.50;;
15126;SDS011;7664;52.008;4.748;2022-09-09T02:44:27;5.60;;;2.88;;
15126;SDS011;7664;52.008;4.748;2022-09-09T02:47:07;3.55;;;2.75;;
15126;SDS011;7664;52.008;4.748;2022-09-09T02:49:45;4.28;;;2.83;;
15126;SDS011;7664;52.008;4.748;2022-09-09T02:52:20;4.65;;;2.42;;
15126;SDS011;7664;52.008;4.748;2022-09-09T02:54:54;3.08;;;2.33;;
15126;SDS011;7664;52.008;4.748;2022-09-09T02:57:27;3.92;;;2.97;;
15126;SDS011;7664;52.008;4.748;2022-09-09T02:59:59;5.65;;;2.90;;
15126;SDS011;7664;52.008;4.748;2022-09-09T03:02:28;6.55;;;3.03;;
15126;SDS011;7664;52.008;4.748;2022-09-09T03:04:56;3.60;;;2.75;;
15126;SDS011;7664;52.008;4.748;2022-09-09T03:07:24;5.07;;;2.65;;
15126;SDS011;7664;52.008;4.748;2022-09-09T03:09:53;4.03;;;2.35;;
15126;SDS011;7664;52.008;4.748;2022-09-09T03:12:21;6.38;;;3.28;;
15126;SDS011;7664;52.008;4.748;2022-09-09T03:14:49;4.75;;;2.85;;
15126;SDS011;7664;52.008;4.748;2022-09-09T03:17:18;4.07;;;2.65;;
15126;SDS011;7664;52.008;4.748;2022-09-09T03:19:46;4.78;;;2.88;;
15126;SDS011;7664;52.008;4.748;2022-09-09T03:22:15;4.45;;;2.58;;
15126;SDS011;7664;52.008;4.748;2022-09-09T03:24:43;4.20;;;3.03;;
15126;SDS011;7664;52.008;4.748;2022-09-09T03:27:12;3.33;;;2.60;;
15126;SDS011;7664;52.008;4.748;2022-09-09T03:29:41;4.97;;;3.13;;
15126;SDS011;7664;52.008;4.748;2022-09-09T03:32:09;6.05;;;2.80;;
15126;SDS011;7664;52.008;4.748;2022-09-09T03:34:38;4.53;;;2.47;;
15126;SDS011;7664;52.008;4.748;2022-09-09T03:37:06;4.72;;;2.67;;
15126;SDS011;7664;52.008;4.748;2022-09-09T03:39:34;5.55;;;2.15;;
15126;SDS011;7664;52.008;4.748;2022-09-09T03:42:02;6.03;;;2.38;;
15126;SDS011;7664;52.008;4.748;2022-09-09T03:44:30;4.53;;;1.83;;
15126;SDS011;7664;52.008;4.748;2022-09-09T03:46:58;4.07;;;2.35;;
15126;SDS011;7664;52.008;4.748;2022-09-09T03:49:26;3.42;;;2.40;;
15126;SDS011;7664;52.008;4.748;2022-09-09T03:51:56;4.15;;;2.30;;
15126;SDS011;7664;52.008;4.748;2022-09-09T03:54:25;3.00;;;1.92;;
15126;SDS011;7664;52.008;4.748;2022-09-09T03:56:53;4.28;;;2.13;;
15126;SDS011;7664;52.008;4.748;2022-09-09T03:59:22;3.10;;;2.03;;
15126;SDS011;7664;52.008;4.748;2022-09-09T04:01:50;5.32;;;2.00;;
15126;SDS011;7664;52.008;4.748;2022-09-09T04:04:17;2.50;;;1.60;;
15126;SDS011;7664;52.008;4.748;2022-09-09T04:06:46;3.72;;;2.25;;
15126;SDS011;7664;52.008;4.748;2022-09-09T04:09:16;4.32;;;2.03;;
15126;SDS011;7664;52.008;4.748;2022-09-09T04:11:43;2.78;;;1.60;;
15126;SDS011;7664;52.008;4.748;2022-09-09T04:14:12;4.85;;;2.20;;
15126;SDS011;7664;52.008;4.748;2022-09-09T04:16:40;1.48;;;1.38;;
15126;SDS011;7664;52.008;4.748;2022-09-09T04:19:09;2.28;;;1.55;;
15126;SDS011;7664;52.008;4.748;2022-09-09T04:21:38;4.95;;;1.65;;
15126;SDS011;7664;52.008;4.748;2022-09-09T04:24:07;2.35;;;1.42;;
15126;SDS011;7664;52.008;4.748;2022-09-09T04:26:36;4.40;;;1.52;;
15126;SDS011;7664;52.008;4.748;2022-09-09T04:29:04;2.65;;;1.75;;
15126;SDS011;7664;52.008;4.748;2022-09-09T04:31:33;3.95;;;1.85;;
15126;SDS011;7664;52.008;4.748;2022-09-09T04:34:01;2.58;;;1.45;;
15126;SDS011;7664;52.008;4.748;2022-09-09T04:36:31;3.05;;;1.77;;
15126;SDS011;7664;52.008;4.748;2022-09-09T04:38:59;4.50;;;1.80;;
15126;SDS011;7664;52.008;4.748;2022-09-09T04:41:27;3.80;;;1.52;;
15126;SDS011;7664;52.008;4.748;2022-09-09T04:43:58;4.38;;;1.60;;
15126;SDS011;7664;52.008;4.748;2022-09-09T04:46:27;2.90;;;1.08;;
15126;SDS011;7664;52.008;4.748;2022-09-09T04:48:54;9.02;;;1.60;;
15126;SDS011;7664;52.008;4.748;2022-09-09T04:51:22;2.35;;;1.15;;
15126;SDS011;7664;52.008;4.748;2022-09-09T04:53:51;3.38;;;1.13;;
15126;SDS011;7664;52.008;4.748;2022-09-09T04:56:20;1.75;;;1.00;;
15126;SDS011;7664;52.008;4.748;2022-09-09T04:58:48;4.82;;;1.83;;
15126;SDS011;7664;52.008;4.748;2022-09-09T05:01:18;1.95;;;1.15;;
15126;SDS011;7664;52.008;4.748;2022-09-09T05:03:48;4.32;;;1.45;;
15126;SDS011;7664;52.008;4.748;2022-09-09T05:06:17;2.13;;;1.30;;
15126;SDS011;7664;52.008;4.748;2022-09-09T05:08:47;4.05;;;1.60;;
15126;SDS011;7664;52.008;4.748;2022-09-09T05:11:16;2.03;;;1.30;;
15126;SDS011;7664;52.008;4.748;2022-09-09T05:13:45;4.57;;;1.40;;
15126;SDS011;7664;52.008;4.748;2022-09-09T05:16:14;3.10;;;1.40;;
15126;SDS011;7664;52.008;4.748;2022-09-09T05:18:43;2.22;;;1.40;;
15126;SDS011;7664;52.008;4.748;2022-09-09T05:21:13;1.98;;;1.10;;
15126;SDS011;7664;52.008;4.748;2022-09-09T05:23:42;2.25;;;1.23;;
15126;SDS011;7664;52.008;4.748;2022-09-09T05:26:12;2.42;;;1.17;;
15126;SDS011;7664;52.008;4.748;2022-09-09T05:28:43;2.63;;;1.10;;
15126;SDS011;7664;52.008;4.748;2022-09-09T05:31:11;2.95;;;1.20;;
15126;SDS011;7664;52.008;4.748;2022-09-09T05:33:40;1.20;;;1.10;;
15126;SDS011;7664;52.008;4.748;2022-09-09T05:36:11;4.18;;;1.00;;
15126;SDS011;7664;52.008;4.748;2022-09-09T05:38:40;1.60;;;0.90;;
15126;SDS011;7664;52.008;4.748;2022-09-09T05:41:08;4.15;;;1.15;;
15126;SDS011;7664;52.008;4.748;2022-09-09T05:43:37;1.05;;;0.82;;
15126;SDS011;7664;52.008;4.748;2022-09-09T05:46:06;2.78;;;1.27;;
15126;SDS011;7664;52.008;4.748;2022-09-09T05:48:36;3.75;;;1.73;;
15126;SDS011;7664;52.008;4.748;2022-09-09T05:51:06;5.85;;;1.13;;
15126;SDS011;7664;52.008;4.748;2022-09-09T05:53:37;2.20;;;1.17;;
15126;SDS011;7664;52.008;4.748;2022-09-09T05:56:05;2.45;;;1.40;;
15126;SDS011;7664;52.008;4.748;2022-09-09T05:58:36;1.98;;;1.08;;
15126;SDS011;7664;52.008;4.748;2022-09-09T06:01:05;2.67;;;1.02;;
15126;SDS011;7664;52.008;4.748;2022-09-09T06:03:35;3.80;;;1.70;;
15126;SDS011;7664;52.008;4.748;2022-09-09T06:06:05;4.03;;;2.00;;
15126;SDS011;7664;52.008;4.748;2022-09-09T06:08:34;4.35;;;1.27;;
15126;SDS011;7664;52.008;4.748;2022-09-09T06:11:06;2.53;;;1.13;;
15126;SDS011;7664;52.008;4.748;2022-09-09T06:13:36;5.70;;;1.77;;
15126;SDS011;7664;52.008;4.748;2022-09-09T06:16:05;3.55;;;1.10;;
15126;SDS011;7664;52.008;4.748;2022-09-09T06:18:35;3.28;;;1.02;;
15126;SDS011;7664;52.008;4.748;2022-09-09T06:21:03;4.07;;;1.05;;
15126;SDS011;7664;52.008;4.748;2022-09-09T06:23:33;3.80;;;1.40;;
15126;SDS011;7664;52.008;4.748;2022-09-09T06:26:04;4.85;;;1.63;;
15126;SDS011;7664;52.008;4.748;2022-09-09T06:28:34;2.95;;;1.20;;
15126;SDS011;7664;52.008;4.748;2022-09-09T06:31:03;6.57;;;2.00;;
15126;SDS011;7664;52.008;4.748;2022-09-09T06:33:33;4.82;;;2.00;;
15126;SDS011;7664;52.008;4.748;2022-09-09T06:36:02;11.68;;;2.25;;
15126;SDS011;7664;52.008;4.748;2022-09-09T06:38:31;5.40;;;1.75;;
15126;SDS011;7664;52.008;4.748;2022-09-09T06:40:59;5.15;;;1.42;;
15126;SDS011;7664;52.008;4.748;2022-09-09T06:43:29;4.47;;;1.23;;
15126;SDS011;7664;52.008;4.748;2022-09-09T06:45:57;3.17;;;1.50;;
15126;SDS011;7664;52.008;4.748;2022-09-09T06:48:26;2.97;;;1.10;;
15126;SDS011;7664;52.008;4.748;2022-09-09T06:51:01;1.92;;;1.30;;
15126;SDS011;7664;52.008;4.748;2022-09-09T06:53:30;2.58;;;1.02;;
15126;SDS011;7664;52.008;4.748;2022-09-09T06:56:00;2.97;;;1.45;;
15126;SDS011;7664;52.008;4.748;2022-09-09T06:58:29;5.13;;;1.83;;
15126;SDS011;7664;52.008;4.748;2022-09-09T07:01:03;7.57;;;1.65;;
15126;SDS011;7664;52.008;4.748;2022-09-09T07:03:32;5.68;;;1.88;;
15126;SDS011;7664;52.008;4.748;2022-09-09T07:05:59;4.20;;;1.52;;
15126;SDS011;7664;52.008;4.748;2022-09-09T07:08:28;4.63;;;1.60;;
15126;SDS011;7664;52.008;4.748;2022-09-09T07:11:01;2.72;;;1.48;;
15126;SDS011;7664;52.008;4.748;2022-09-09T07:13:38;4.45;;;2.05;;
15126;SDS011;7664;52.008;4.748;2022-09-09T07:16:06;7.15;;;1.70;;
15126;SDS011;7664;52.008;4.748;2022-09-09T07:18:35;7.88;;;1.90;;
15126;SDS011;7664;52.008;4.748;2022-09-09T07:21:03;6.13;;;2.10;;
15126;SDS011;7664;52.008;4.748;2022-09-09T07:23:32;13.40;;;3.75;;
15126;SDS011;7664;52.008;4.748;2022-09-09T07:26:01;9.48;;;2.67;;
15126;SDS011;7664;52.008;4.748;2022-09-09T07:28:30;13.55;;;4.07;;
15126;SDS011;7664;52.008;4.748;2022-09-09T07:31:00;11.88;;;3.60;;
15126;SDS011;7664;52.008;4.748;2022-09-09T07:33:29;6.53;;;2.20;;
15126;SDS011;7664;52.008;4.748;2022-09-09T07:36:03;5.43;;;2.40;;
15126;SDS011;7664;52.008;4.748;2022-09-09T07:38:37;5.15;;;2.70;;
15126;SDS011;7664;52.008;4.748;2022-09-09T07:41:06;6.55;;;2.83;;
15126;SDS011;7664;52.008;4.748;2022-09-09T07:43:38;6.63;;;3.10;;
15126;SDS011;7664;52.008;4.748;2022-09-09T07:46:08;6.22;;;2.40;;
15126;SDS011;7664;52.008;4.748;2022-09-09T07:48:44;5.88;;;2.25;;
15126;SDS011;7664;52.008;4.748;2022-09-09T07:51:13;6.30;;;2.20;;
15126;SDS011;7664;52.008;4.748;2022-09-09T07:53:45;8.73;;;2.50;;
15126;SDS011;7664;52.008;4.748;2022-09-09T07:56:15;4.10;;;2.20;;
15126;SDS011;7664;52.008;4.748;2022-09-09T07:58:45;10.45;;;2.00;;
15126;SDS011;7664;52.008;4.748;2022-09-09T08:01:16;4.80;;;2.75;;
15126;SDS011;7664;52.008;4.748;2022-09-09T08:03:46;7.40;;;2.08;;
15126;SDS011;7664;52.008;4.748;2022-09-09T08:06:21;4.75;;;2.42;;
15126;SDS011;7664;52.008;4.748;2022-09-09T08:08:51;6.15;;;2.40;;
15126;SDS011;7664;52.008;4.748;2022-09-09T08:11:21;6.93;;;2.45;;
15126;SDS011;7664;52.008;4.748;2022-09-09T08:13:50;4.57;;;2.25;;
15126;SDS011;7664;52.008;4.748;2022-09-09T08:16:24;5.13;;;2.30;;
15126;SDS011;7664;52.008;4.748;2022-09-09T08:18:53;6.75;;;3.20;;
15126;SDS011;7664;52.008;4.748;2022-09-09T08:21:22;6.00;;;2.33;;
15126;SDS011;7664;52.008;4.748;2022-09-09T08:23:51;13.07;;;2.97;;
15126;SDS011;7664;52.008;4.748;2022-09-09T08:26:24;6.80;;;2.65;;
15126;SDS011;7664;52.008;4.748;2022-09-09T08:28:55;6.75;;;2.65;;
15126;SDS011;7664;52.008;4.748;2022-09-09T08:31:26;5.20;;;2.03;;
15126;SDS011;7664;52.008;4.748;2022-09-09T08:33:55;6.13;;;2.63;;
15126;SDS011;7664;52.008;4.748;2022-09-09T08:36:26;2.63;;;1.63;;
15126;SDS011;7664;52.008;4.748;2022-09-09T08:38:56;5.72;;;1.90;;
15126;SDS011;7664;52.008;4.748;2022-09-09T08:41:29;2.65;;;1.75;;
15126;SDS011;7664;52.008;4.748;2022-09-09T08:44:06;4.13;;;2.08;;
15126;SDS011;7664;52.008;4.748;2022-09-09T08:46:41;7.82;;;2.10;;
15126;SDS011;7664;52.008;4.748;2022-09-09T08:49:18;4.95;;;2.08;;
15126;SDS011;7664;52.008;4.748;2022-09-09T08:51:57;6.45;;;1.58;;
15126;SDS011;7664;52.008;4.748;2022-09-09T08:54:25;5.05;;;1.60;;
15126;SDS011;7664;52.008;4.748;2022-09-09T08:57:18;5.53;;;2.53;;
15126;SDS011;7664;52.008;4.748;2022-09-09T08:59:53;2.88;;;1.73;;
15126;SDS011;7664;52.008;4.748;2022-09-09T09:02:25;7.93;;;2.30;;
15126;SDS011;7664;52.008;4.748;2022-09-09T09:05:04;5.55;;;1.50;;
15126;SDS011;7664;52.008;4.748;2022-09-09T09:07:46;5.35;;;1.75;;
15126;SDS011;7664;52.008;4.748;2022-09-09T09:10:25;3.88;;;1.13;;
15126;SDS011;7664;52.008;4.748;2022-09-09T09:13:09;4.00;;;1.65;;
15126;SDS011;7664;52.008;4.748;2022-09-09T09:15:42;3.58;;;1.70;;
15126;SDS011;7664;52.008;4.748;2022-09-09T09:18:15;4.07;;;1.48;;
15126;SDS011;7664;52.008;4.748;2022-09-09T09:20:47;3.88;;;1.77;;
15126;SDS011;7664;52.008;4.748;2022-09-09T09:23:21;4.82;;;1.30;;
15126;SDS011;7664;52.008;4.748;2022-09-09T09:25:50;5.10;;;1.35;;
15126;SDS011;7664;52.008;4.748;2022-09-09T09:28:24;3.28;;;1.38;;
15126;SDS011;7664;52.008;4.748;2022-09-09T09:30:55;4.20;;;1.38;;
15126;SDS011;7664;52.008;4.748;2022-09-09T09:33:27;3.20;;;1.38;;
15126;SDS011;7664;52.008;4.748;2022-09-09T09:35:59;8.60;;;1.67;;
15126;SDS011;7664;52.008;4.748;2022-09-09T09:38:28;2.53;;;1.20;;
15126;SDS011;7664;52.008;4.748;2022-09-09T09:41:16;4.15;;;1.20;;
15126;SDS011;7664;52.008;4.748;2022-09-09T09:43:55;4.97;;;1.30;;
15126;SDS011;7664;52.008;4.748;2022-09-09T09:46:24;3.47;;;1.35;;
15126;SDS011;7664;52.008;4.748;2022-09-09T09:48:58;3.83;;;1.00;;
15126;SDS011;7664;52.008;4.748;2022-09-09T09:51:27;4.95;;;1.75;;
15126;SDS011;7664;52.008;4.748;2022-09-09T09:54:03;4.95;;;1.50;;
15126;SDS011;7664;52.008;4.748;2022-09-09T09:56:42;4.15;;;1.33;;
15126;SDS011;7664;52.008;4.748;2022-09-09T09:59:22;5.70;;;1.48;;
15126;SDS011;7664;52.008;4.748;2022-09-09T10:02:17;7.13;;;1.63;;
15126;SDS011;7664;52.008;4.748;2022-09-09T10:04:48;3.17;;;1.55;;
15126;SDS011;7664;52.008;4.748;2022-09-09T10:07:27;2.28;;;1.17;;
15126;SDS011;7664;52.008;4.748;2022-09-09T10:09:56;5.30;;;1.90;;
15126;SDS011;7664;52.008;4.748;2022-09-09T10:12:29;1.98;;;1.15;;
15126;SDS011;7664;52.008;4.748;2022-09-09T10:15:12;3.40;;;1.40;;
15126;SDS011;7664;52.008;4.748;2022-09-09T10:17:55;5.35;;;1.65;;
15126;SDS011;7664;52.008;4.748;2022-09-09T10:20:34;3.78;;;2.08;;
15126;SDS011;7664;52.008;4.748;2022-09-09T10:23:13;2.60;;;1.33;;
15126;SDS011;7664;52.008;4.748;2022-09-09T10:25:56;1.85;;;0.98;;
15126;SDS011;7664;52.008;4.748;2022-09-09T10:28:33;2.95;;;1.20;;
15126;SDS011;7664;52.008;4.748;2022-09-09T10:31:17;6.47;;;1.52;;
15126;SDS011;7664;52.008;4.748;2022-09-09T10:33:50;2.60;;;1.17;;
15126;SDS011;7664;52.008;4.748;2022-09-09T10:36:25;4.78;;;1.25;;
15126;SDS011;7664;52.008;4.748;2022-09-09T10:38:56;2.30;;;0.90;;
15126;SDS011;7664;52.008;4.748;2022-09-09T10:41:35;3.88;;;1.00;;
15126;SDS011;7664;52.008;4.748;2022-09-09T10:44:15;3.63;;;1.13;;
15126;SDS011;7664;52.008;4.748;2022-09-09T10:47:00;6.60;;;1.40;;
15126;SDS011;7664;52.008;4.748;2022-09-09T10:49:52;2.08;;;0.90;;
15126;SDS011;7664;52.008;4.748;2022-09-09T10:52:34;3.58;;;1.15;;
15126;SDS011;7664;52.008;4.748;2022-09-09T10:55:10;4.95;;;1.20;;
15126;SDS011;7664;52.008;4.748;2022-09-09T10:57:43;1.92;;;1.10;;
15126;SDS011;7664;52.008;4.748;2022-09-09T11:00:15;3.78;;;1.10;;
15126;SDS011;7664;52.008;4.748;2022-09-09T11:02:46;4.38;;;0.82;;
15126;SDS011;7664;52.008;4.748;2022-09-09T11:05:19;3.92;;;1.40;;
15126;SDS011;7664;52.008;4.748;2022-09-09T11:07:51;3.38;;;0.95;;
15126;SDS011;7664;52.008;4.748;2022-09-09T11:10:26;3.05;;;0.93;;
15126;SDS011;7664;52.008;4.748;2022-09-09T11:13:03;1.85;;;0.85;;
15126;SDS011;7664;52.008;4.748;2022-09-09T11:15:39;3.58;;;1.17;;
15126;SDS011;7664;52.008;4.748;2022-09-09T11:18:11;4.80;;;1.20;;
15126;SDS011;7664;52.008;4.748;2022-09-09T11:20:44;1.10;;;0.90;;
15126;SDS011;7664;52.008;4.748;2022-09-09T11:23:15;3.85;;;1.25;;
15126;SDS011;7664;52.008;4.748;2022-09-09T11:25:49;3.63;;;1.42;;
15126;SDS011;7664;52.008;4.748;2022-09-09T11:28:35;2.42;;;1.00;;
15126;SDS011;7664;52.008;4.748;2022-09-09T11:31:18;1.90;;;1.10;;
15126;SDS011;7664;52.008;4.748;2022-09-09T11:34:07;4.82;;;1.58;;
15126;SDS011;7664;52.008;4.748;2022-09-09T11:39:47;2.75;;;1.17;;
15126;SDS011;7664;52.008;4.748;2022-09-09T11:42:32;2.60;;;1.55;;
15126;SDS011;7664;52.008;4.748;2022-09-09T11:45:08;4.00;;;1.48;;
15126;SDS011;7664;52.008;4.748;2022-09-09T11:47:52;2.40;;;1.08;;
15126;SDS011;7664;52.008;4.748;2022-09-09T11:50:27;1.98;;;1.27;;
15126;SDS011;7664;52.008;4.748;2022-09-09T11:53:05;2.78;;;1.17;;
15126;SDS011;7664;52.008;4.748;2022-09-09T11:55:48;5.18;;;1.75;;
15126;SDS011;7664;52.008;4.748;2022-09-09T11:58:34;4.18;;;1.65;;
15126;SDS011;7664;52.008;4.748;2022-09-09T12:01:13;3.50;;;1.40;;
15126;SDS011;7664;52.008;4.748;2022-09-09T12:03:43;2.10;;;1.55;;
15126;SDS011;7664;52.008;4.748;2022-09-09T12:06:15;2.50;;;1.50;;
15126;SDS011;7664;52.008;4.748;2022-09-09T12:08:47;4.35;;;1.50;;
15126;SDS011;7664;52.008;4.748;2022-09-09T12:11:27;2.42;;;1.65;;
15126;SDS011;7664;52.008;4.748;2022-09-09T12:13:57;4.70;;;1.40;;
15126;SDS011;7664;52.008;4.748;2022-09-09T12:16:28;3.72;;;1.80;;
15126;SDS011;7664;52.008;4.748;2022-09-09T12:19:04;4.97;;;1.52;;
15126;SDS011;7664;52.008;4.748;2022-09-09T12:21:35;2.75;;;1.50;;
15126;SDS011;7664;52.008;4.748;2022-09-09T12:24:13;3.00;;;1.35;;
15126;SDS011;7664;52.008;4.748;2022-09-09T12:26:50;1.35;;;1.17;;
15126;SDS011;7664;52.008;4.748;2022-09-09T12:29:25;4.57;;;1.75;;
15126;SDS011;7664;52.008;4.748;2022-09-09T12:32:01;7.43;;;1.95;;
15126;SDS011;7664;52.008;4.748;2022-09-09T12:34:35;4.50;;;1.90;;
15126;SDS011;7664;52.008;4.748;2022-09-09T12:37:11;3.30;;;1.73;;
15126;SDS011;7664;52.008;4.748;2022-09-09T12:39:46;3.10;;;1.60;;
15126;SDS011;7664;52.008;4.748;2022-09-09T12:42:21;3.25;;;1.60;;
15126;SDS011;7664;52.008;4.748;2022-09-09T12:44:56;2.92;;;1.33;;
15126;SDS011;7664;52.008;4.748;2022-09-09T12:47:26;3.53;;;1.48;;
15126;SDS011;7664;52.008;4.748;2022-09-09T12:50:02;3.45;;;1.52;;
15126;SDS011;7664;52.008;4.748;2022-09-09T12:52:31;6.55;;;2.17;;
15126;SDS011;7664;52.008;4.748;2022-09-09T12:55:04;1.55;;;1.00;;
15126;SDS011;7664;52.008;4.748;2022-09-09T12:57:36;4.47;;;1.38;;
15126;SDS011;7664;52.008;4.748;2022-09-09T13:00:07;3.10;;;1.55;;
15126;SDS011;7664;52.008;4.748;2022-09-09T13:02:46;4.25;;;1.13;;
15126;SDS011;7664;52.008;4.748;2022-09-09T13:05:17;2.95;;;1.25;;
15126;SDS011;7664;52.008;4.748;2022-09-09T13:07:48;4.25;;;1.52;;
15126;SDS011;7664;52.008;4.748;2022-09-09T13:10:20;1.92;;;1.50;;
15126;SDS011;7664;52.008;4.748;2022-09-09T13:13:14;4.72;;;2.08;;
15126;SDS011;7664;52.008;4.748;2022-09-09T13:15:51;6.47;;;1.88;;
15126;SDS011;7664;52.008;4.748;2022-09-09T13:18:21;3.67;;;2.00;;
15126;SDS011;7664;52.008;4.748;2022-09-09T13:20:51;2.15;;;1.40;;
15126;SDS011;7664;52.008;4.748;2022-09-09T13:23:19;4.13;;;1.88;;
15126;SDS011;7664;52.008;4.748;2022-09-09T13:25:55;2.05;;;1.50;;
15126;SDS011;7664;52.008;4.748;2022-09-09T13:28:25;3.85;;;1.92;;
15126;SDS011;7664;52.008;4.748;2022-09-09T13:30:59;6.50;;;2.47;;
15126;SDS011;7664;52.008;4.748;2022-09-09T13:33:30;4.22;;;1.80;;
15126;SDS011;7664;52.008;4.748;2022-09-09T13:36:01;3.55;;;1.33;;
15126;SDS011;7664;52.008;4.748;2022-09-09T13:38:32;1.67;;;1.13;;
15126;SDS011;7664;52.008;4.748;2022-09-09T13:41:04;4.13;;;2.03;;
15126;SDS011;7664;52.008;4.748;2022-09-09T13:43:36;3.15;;;1.40;;
15126;SDS011;7664;52.008;4.748;2022-09-09T13:46:22;2.97;;;1.23;;
15126;SDS011;7664;52.008;4.748;2022-09-09T13:48:54;2.65;;;1.38;;
15126;SDS011;7664;52.008;4.748;2022-09-09T13:51:26;3.20;;;1.50;;
15126;SDS011;7664;52.008;4.748;2022-09-09T13:53:59;4.70;;;1.58;;
15126;SDS011;7664;52.008;4.748;2022-09-09T13:56:27;3.03;;;1.70;;
15126;SDS011;7664;52.008;4.748;2022-09-09T13:58:56;2.63;;;0.80;;
15126;SDS011;7664;52.008;4.748;2022-09-09T14:01:24;3.50;;;0.88;;
15126;SDS011;7664;52.008;4.748;2022-09-09T14:03:55;1.33;;;0.82;;
15126;SDS011;7664;52.008;4.748;2022-09-09T14:06:23;5.20;;;0.93;;
15126;SDS011;7664;52.008;4.748;2022-09-09T14:08:51;4.28;;;1.15;;
15126;SDS011;7664;52.008;4.748;2022-09-09T14:11:20;0.93;;;0.75;;
15126;SDS011;7664;52.008;4.748;2022-09-09T14:13:48;2.38;;;1.17;;
15126;SDS011;7664;52.008;4.748;2022-09-09T14:16:18;3.85;;;0.63;;
15126;SDS011;7664;52.008;4.748;2022-09-09T14:18:48;5.07;;;0.40;;
15126;SDS011;7664;52.008;4.748;2022-09-09T14:21:16;0.85;;;0.50;;
15126;SDS011;7664;52.008;4.748;2022-09-09T14:23:44;2.53;;;0.90;;
15126;SDS011;7664;52.008;4.748;2022-09-09T14:26:12;1.65;;;0.85;;
15126;SDS011;7664;52.008;4.748;2022-09-09T14:28:40;4.88;;;1.08;;
15126;SDS011;7664;52.008;4.748;2022-09-09T14:31:25;2.50;;;0.85;;
15126;SDS011;7664;52.008;4.748;2022-09-09T14:33:53;2.20;;;0.70;;
15126;SDS011;7664;52.008;4.748;2022-09-09T14:36:21;2.17;;;0.70;;
15126;SDS011;7664;52.008;4.748;2022-09-09T14:38:50;1.23;;;0.88;;
15126;SDS011;7664;52.008;4.748;2022-09-09T14:41:19;1.95;;;0.70;;
15126;SDS011;7664;52.008;4.748;2022-09-09T14:43:48;1.48;;;0.77;;
15126;SDS011;7664;52.008;4.748;2022-09-09T14:46:18;2.95;;;1.08;;
15126;SDS011;7664;52.008;4.748;2022-09-09T14:48:48;2.03;;;0.88;;
15126;SDS011;7664;52.008;4.748;2022-09-09T14:51:17;2.60;;;0.80;;
15126;SDS011;7664;52.008;4.748;2022-09-09T14:53:50;2.20;;;1.25;;
15126;SDS011;7664;52.008;4.748;2022-09-09T14:56:21;2.97;;;1.10;;
15126;SDS011;7664;52.008;4.748;2022-09-09T14:58:50;4.40;;;0.93;;
15126;SDS011;7664;52.008;4.748;2022-09-09T15:01:21;1.73;;;0.60;;
15126;SDS011;7664;52.008;4.748;2022-09-09T15:03:52;1.48;;;0.70;;
15126;SDS011;7664;52.008;4.748;2022-09-09T15:06:21;1.88;;;0.60;;
15126;SDS011;7664;52.008;4.748;2022-09-09T15:08:50;1.05;;;0.63;;
15126;SDS011;7664;52.008;4.748;2022-09-09T15:11:20;2.92;;;0.60;;
15126;SDS011;7664;52.008;4.748;2022-09-09T15:13:51;1.00;;;0.70;;
15126;SDS011;7664;52.008;4.748;2022-09-09T15:16:21;0.63;;;0.57;;
15126;SDS011;7664;52.008;4.748;2022-09-09T15:18:53;3.05;;;0.93;;
15126;SDS011;7664;52.008;4.748;2022-09-09T15:21:23;3.22;;;0.90;;
15126;SDS011;7664;52.008;4.748;2022-09-09T15:23:52;4.03;;;0.80;;
15126;SDS011;7664;52.008;4.748;2022-09-09T15:26:20;3.08;;;1.08;;
15126;SDS011;7664;52.008;4.748;2022-09-09T15:28:49;2.70;;;0.52;;
15126;SDS011;7664;52.008;4.748;2022-09-09T15:31:17;1.48;;;0.65;;
15126;SDS011;7664;52.008;4.748;2022-09-09T15:33:47;3.00;;;0.50;;
15126;SDS011;7664;52.008;4.748;2022-09-09T15:36:18;1.88;;;0.70;;
15126;SDS011;7664;52.008;4.748;2022-09-09T15:38:48;1.92;;;0.63;;